Terminal Aerodrome Forecast
Issued by NWS Jacksonville, FL

Home | Current Version | Previous Version | Text Only | Print | Product List | Glossary On
Versions: 1 2 3 4 5 6 7 8 9 10 11 12 13 14 15 16 17 18 19 20 21
000
FTUS42 KJAX 051120
TAFGNV
TAF
KGNV 051120Z 0512/0612 27009G15KT P6SM SKC
     FM051400 28018G30KT P6SM SKC
     FM052200 29012G22KT P6SM FEW070
     FM060000 30005KT P6SM SKC=

USA.gov is the U.S. government's official web portal to all federal, state and local government web resources and services.